createdAt,value
2022-08-07T00:00:47.713Z,100691.72
2022-08-07T00:03:39.742Z,100695.59
2022-08-07T00:06:37.184Z,100709.81
2022-08-07T00:09:35.787Z,100700.06
2022-08-07T00:12:25.670Z,100702.06
2022-08-07T00:15:15.450Z,100703.91
2022-08-07T00:18:08.577Z,100709.59
2022-08-07T00:21:56.221Z,100703.47
2022-08-07T00:24:21.966Z,100703.78
2022-08-07T00:27:13.547Z,100696.41
2022-08-07T00:30:06.779Z,100708.50
2022-08-07T00:33:17.962Z,100712.81
2022-08-07T00:36:10.341Z,100711.13
2022-08-07T00:38:59.749Z,100718.34
2022-08-07T00:42:01.771Z,100714.28
2022-08-07T00:44:56.291Z,100713.06
2022-08-07T00:48:09.010Z,100709.38
2022-08-07T00:50:56.814Z,100711.41
2022-08-07T00:53:50.472Z,100700.97
2022-08-07T00:56:46.182Z,100718.81
2022-08-07T00:59:39.658Z,100709.50
2022-08-07T01:02:29.869Z,100713.31
2022-08-07T01:05:24.663Z,100705.19
2022-08-07T01:08:14.344Z,100712.53
2022-08-07T01:11:10.738Z,100705.44
2022-08-07T01:14:17.284Z,100706.75
2022-08-07T01:17:11.698Z,100705.03
2022-08-07T01:20:07.972Z,100705.97
2022-08-07T01:23:08.970Z,100714.41
2022-08-07T01:26:02.855Z,100711.66
2022-08-07T01:28:53.963Z,100712.97
2022-08-07T01:31:48.241Z,100712.59
2022-08-07T01:34:38.549Z,100705.16
2022-08-07T01:37:33.781Z,100723.28
2022-08-07T01:40:29.811Z,100712.81
2022-08-07T01:43:23.144Z,100713.41
2022-08-07T01:46:16.853Z,100718.03
2022-08-07T01:49:13.438Z,100717.13
2022-08-07T01:52:12.534Z,100726.97
2022-08-07T01:55:05.501Z,100723.63
2022-08-07T01:58:26.976Z,100724.75
2022-08-07T02:01:25.427Z,100716.38
2022-08-07T02:04:34.572Z,100719.81
2022-08-07T02:07:44.902Z,100725.84
2022-08-07T02:10:44.479Z,100734.22
2022-08-07T02:13:58.087Z,100723.22
2022-08-07T02:16:53.630Z,100738.06
2022-08-07T02:20:04.768Z,100739.72
2022-08-07T02:23:06.221Z,100732.56
2022-08-07T02:26:31.380Z,100741.50
2022-08-07T02:29:13.562Z,100740.47
2022-08-07T02:32:10.871Z,100748.75
2022-08-07T02:35:06.211Z,100746.69
2022-08-07T02:38:00.685Z,100744.84
2022-08-07T02:40:55.964Z,100752.94
2022-08-07T02:43:48.900Z,100742.16
2022-08-07T02:46:46.804Z,100737.19
2022-08-07T02:49:58.932Z,100735.16
2022-08-07T02:53:10.987Z,100737.63
2022-08-07T02:56:05.284Z,100732.72
2022-08-07T02:59:04.645Z,100741.47
2022-08-07T03:01:57.810Z,100734.00
2022-08-07T03:04:55.428Z,100722.19
2022-08-07T03:08:04.917Z,100727.38
2022-08-07T03:10:58.701Z,100716.69
2022-08-07T03:13:57.626Z,100718.72
2022-08-07T03:16:52.854Z,100704.47
2022-08-07T03:19:43.754Z,100713.22
2022-08-07T03:22:50.374Z,100691.41
2022-08-07T03:25:43.125Z,100677.25
2022-08-07T03:28:44.244Z,100676.25
2022-08-07T03:31:42.481Z,100678.16
2022-08-07T03:34:33.710Z,100675.25
2022-08-07T03:37:37.467Z,100666.38
2022-08-07T03:40:44.687Z,100661.06
2022-08-07T03:43:36.821Z,100659.38
2022-08-07T03:46:28.141Z,100657.78
2022-08-07T03:49:20.457Z,100657.00
2022-08-07T03:52:22.858Z,100646.06
2022-08-07T03:55:20.156Z,100647.19
2022-08-07T03:59:07.359Z,100638.47
2022-08-07T04:01:23.408Z,100637.28
2022-08-07T04:04:17.469Z,100635.22
2022-08-07T04:07:17.408Z,100636.94
2022-08-07T04:10:22.410Z,100632.59
2022-08-07T04:13:15.720Z,100631.78
2022-08-07T04:16:10.720Z,100621.59
2022-08-07T04:19:04.427Z,100617.00
2022-08-07T04:22:13.355Z,100609.94
2022-08-07T04:25:12.601Z,100608.66
2022-08-07T04:28:08.226Z,100600.78
2022-08-07T04:30:59.816Z,100598.31
2022-08-07T04:33:54.932Z,100591.63
2022-08-07T04:36:49.498Z,100592.28
2022-08-07T04:39:39.952Z,100582.94
2022-08-07T04:42:41.600Z,100582.94
2022-08-07T04:45:57.574Z,100581.91
2022-08-07T04:49:24.806Z,100575.06
2022-08-07T04:52:27.584Z,100566.59
2022-08-07T04:58:14.032Z,100557.03
2022-08-07T05:00:11.803Z,100559.34
2022-08-07T05:02:16.735Z,100554.34
2022-08-07T05:05:53.113Z,100557.25
2022-08-07T05:08:59.390Z,100550.19
2022-08-07T05:12:02.393Z,100553.91
2022-08-07T05:15:03.527Z,100546.63
2022-08-07T05:18:08.599Z,100550.75
2022-08-07T05:21:06.493Z,100554.25
2022-08-07T05:24:04.096Z,100552.59
2022-08-07T05:26:57.918Z,100549.66
2022-08-07T05:29:54.928Z,100561.72
2022-08-07T05:32:49.065Z,100553.56
2022-08-07T05:35:42.145Z,100560.00
2022-08-07T05:39:00.303Z,100556.66
2022-08-07T05:42:01.468Z,100543.25
2022-08-07T05:45:14.489Z,100542.34
2022-08-07T05:48:08.169Z,100542.75
2022-08-07T05:51:06.438Z,100542.53
2022-08-07T05:54:12.732Z,100533.16
2022-08-07T05:57:11.151Z,100547.25
2022-08-07T06:00:02.754Z,100533.13
2022-08-07T06:03:03.945Z,100539.72
2022-08-07T06:05:56.588Z,100532.66
2022-08-07T06:08:47.914Z,100537.66
2022-08-07T06:11:41.785Z,100540.97
2022-08-07T06:14:32.272Z,100543.91
2022-08-07T06:17:30.643Z,100542.66
2022-08-07T06:20:49.551Z,100550.53
2022-08-07T06:24:37.268Z,100546.41
2022-08-07T06:26:48.963Z,100546.81
2022-08-07T06:29:40.839Z,100536.44
2022-08-07T06:32:32.655Z,100530.19
2022-08-07T06:35:23.003Z,100520.66
2022-08-07T06:38:20.901Z,100507.31
2022-08-07T06:41:47.603Z,100512.16
2022-08-07T06:44:36.891Z,100510.25
2022-08-07T06:47:48.051Z,100505.72
2022-08-07T06:50:47.952Z,100516.94
2022-08-07T06:55:30.202Z,100527.34
2022-08-07T06:56:57.625Z,100545.22
2022-08-07T07:00:12.930Z,100543.94
2022-08-07T07:03:08.740Z,100536.88
2022-08-07T07:06:04.638Z,100531.69
2022-08-07T07:08:58.071Z,100537.09
2022-08-07T07:12:09.096Z,100535.59
2022-08-07T07:15:23.864Z,100534.34
2022-08-07T07:18:47.042Z,100530.56
2022-08-07T07:22:04.633Z,100580.19
2022-08-07T07:24:56.905Z,100595.50
2022-08-07T07:28:02.276Z,100607.81
2022-08-07T07:31:08.561Z,100625.31
2022-08-07T07:34:02.922Z,100623.88
2022-08-07T07:36:54.705Z,100629.13
2022-08-07T07:39:52.006Z,100620.41
2022-08-07T07:42:47.088Z,100612.34
2022-08-07T07:46:38.174Z,100612.81
2022-08-07T07:49:00.291Z,100614.72
2022-08-07T07:52:00.397Z,100608.72
2022-08-07T07:54:52.210Z,100606.78
2022-08-07T07:57:43.814Z,100617.53
2022-08-07T08:00:47.782Z,100618.38
2022-08-07T08:04:10.666Z,100624.88
2022-08-07T08:06:54.575Z,100636.75
2022-08-07T08:09:52.048Z,100654.28
2022-08-07T08:12:59.752Z,100662.03
2022-08-07T08:15:58.414Z,100653.88
2022-08-07T08:18:53.586Z,100654.22
2022-08-07T08:22:06.256Z,100650.38
2022-08-07T08:25:42.570Z,100648.25
2022-08-07T08:28:38.135Z,100643.41
2022-08-07T08:31:58.797Z,100637.34
2022-08-07T08:34:53.549Z,100640.75
2022-08-07T08:38:00.465Z,100649.84
2022-08-07T08:41:21.253Z,100640.59
2022-08-07T08:44:15.845Z,100638.44
2022-08-07T08:47:25.011Z,100643.16
2022-08-07T08:50:51.618Z,100637.97
2022-08-07T08:53:52.263Z,100637.13
2022-08-07T08:56:49.719Z,100630.91
2022-08-07T09:00:00.258Z,100625.53
2022-08-07T09:03:07.570Z,100621.81
2022-08-07T09:06:11.393Z,100625.41
2022-08-07T09:09:20.936Z,100622.91
2022-08-07T09:12:31.725Z,100621.22
2022-08-07T09:16:22.936Z,100616.31
2022-08-07T09:19:50.786Z,100611.78
2022-08-07T09:24:33.899Z,100610.63
2022-08-07T09:26:22.583Z,100604.59
2022-08-07T09:30:05.592Z,100610.22
2022-08-07T09:32:41.018Z,100609.38
2022-08-07T09:36:02.815Z,100611.88
2022-08-07T09:39:53.641Z,100611.88
2022-08-07T09:42:52.545Z,100612.59
2022-08-07T09:47:52.710Z,100615.94
2022-08-07T09:50:19.218Z,100624.06
2022-08-07T09:53:12.524Z,100629.81
2022-08-07T09:56:19.707Z,100631.44
2022-08-07T09:59:46.340Z,100629.03
2022-08-07T10:02:55.671Z,100634.78
2022-08-07T10:06:10.441Z,100622.66
2022-08-07T10:09:05.111Z,100624.69
2022-08-07T10:12:01.723Z,100638.78
2022-08-07T10:15:31.090Z,100632.44
2022-08-07T10:19:02.538Z,100629.03
2022-08-07T10:22:33.798Z,100633.41
2022-08-07T10:25:45.556Z,100638.78
2022-08-07T10:28:49.731Z,100648.59
2022-08-07T10:32:01.469Z,100636.50
2022-08-07T10:34:53.573Z,100634.47
2022-08-07T10:37:48.612Z,100641.44
2022-08-07T10:41:47.306Z,100640.22
2022-08-07T10:45:37.958Z,100651.84
2022-08-07T10:48:50.251Z,100654.22
2022-08-07T10:52:02.105Z,100661.44
2022-08-07T10:55:26.785Z,100658.59
2022-08-07T10:58:49.644Z,100659.25
2022-08-07T11:02:32.833Z,100660.06
2022-08-07T11:05:35.716Z,100663.13
2022-08-07T11:08:42.886Z,100671.19
2022-08-07T11:11:51.808Z,100668.66
2022-08-07T11:15:00.237Z,100666.13
2022-08-07T11:18:03.575Z,100662.78
2022-08-07T11:21:01.741Z,100667.13
2022-08-07T11:24:01.407Z,100672.19
2022-08-07T11:28:02.074Z,100673.19
2022-08-07T11:30:56.100Z,100673.38
2022-08-07T11:34:16.450Z,100672.19
2022-08-07T11:37:38.656Z,100674.38
2022-08-07T11:40:50.072Z,100679.75
2022-08-07T11:44:27.420Z,100677.41
2022-08-07T11:47:58.984Z,100693.38
2022-08-07T11:50:58.480Z,100686.69
2022-08-07T11:54:39.028Z,100702.47
2022-08-07T11:58:00.849Z,100708.19
2022-08-07T12:01:08.448Z,100704.03
2022-08-07T12:04:19.046Z,100707.59
2022-08-07T12:07:27.325Z,100713.22
2022-08-07T12:10:25.024Z,100714.53
2022-08-07T12:13:44.717Z,100723.94
2022-08-07T12:16:49.634Z,100726.94
2022-08-07T12:20:05.413Z,100740.38
2022-08-07T12:23:15.907Z,100742.38
2022-08-07T12:26:29.042Z,100746.44
2022-08-07T12:29:40.538Z,100759.53
2022-08-07T12:33:23.053Z,100771.94
2022-08-07T12:36:39.270Z,100774.97
2022-08-07T12:39:43.833Z,100784.38
2022-08-07T12:42:55.105Z,100794.47
2022-08-07T12:45:57.354Z,100800.53
2022-08-07T12:49:09.773Z,100796.81
2022-08-07T12:52:19.265Z,100806.97
2022-08-07T12:55:41.199Z,100803.25
2022-08-07T12:58:46.694Z,100814.69
2022-08-07T13:01:51.404Z,100817.72
2022-08-07T13:05:01.090Z,100826.81
2022-08-07T13:08:18.789Z,100828.84
2022-08-07T13:11:26.767Z,100836.59
2022-08-07T13:14:36.018Z,100842.81
2022-08-07T13:17:42.564Z,100847.00
2022-08-07T13:20:54.380Z,100858.13
2022-08-07T13:24:11.475Z,100864.50
2022-08-07T13:28:05.847Z,100864.69
2022-08-07T13:30:48.882Z,100864.34
2022-08-07T13:34:30.629Z,100874.25
2022-08-07T13:37:10.957Z,100878.31
2022-08-07T13:40:41.736Z,100878.97
2022-08-07T13:43:28.802Z,100876.63
2022-08-07T13:46:28.252Z,100879.66
2022-08-07T13:50:33.799Z,100886.72
2022-08-07T13:52:38.136Z,100877.97
2022-08-07T13:55:31.177Z,100884.56
2022-08-07T13:58:56.530Z,100886.22
2022-08-07T14:02:13.794Z,100883.34
2022-08-07T14:05:07.024Z,100880.19
2022-08-07T14:08:01.574Z,100882.88
2022-08-07T14:11:14.628Z,100878.31
2022-08-07T14:14:10.569Z,100874.63
2022-08-07T14:17:32.500Z,100876.63
2022-08-07T14:20:42.666Z,100873.28
2022-08-07T14:24:00.609Z,100874.28
2022-08-07T14:28:09.139Z,100870.91
2022-08-07T14:30:15.387Z,100872.47
2022-08-07T14:33:23.743Z,100871.25
2022-08-07T14:36:15.695Z,100862.53
2022-08-07T14:39:07.044Z,100862.53
2022-08-07T14:42:18.248Z,100868.91
2022-08-07T14:45:21.690Z,100876.16
2022-08-07T14:48:19.874Z,100876.16
2022-08-07T14:51:15.599Z,100876.16
2022-08-07T14:54:30.853Z,100877.31
2022-08-07T14:57:19.277Z,100864.72
2022-08-07T15:00:11.178Z,100859.16
2022-08-07T15:03:19.393Z,100851.28
2022-08-07T15:06:10.737Z,100843.38
2022-08-07T15:12:42.178Z,100844.53
2022-08-07T15:15:42.031Z,100830.94
2022-08-07T15:22:04.398Z,100830.94
2022-08-07T15:25:14.274Z,100827.53
2022-08-07T15:28:34.764Z,100813.75
2022-08-07T15:34:27.942Z,100821.56
2022-08-07T15:37:27.560Z,100820.91
2022-08-07T15:43:53.083Z,100819.03
2022-08-07T15:46:47.420Z,100822.25
2022-08-07T15:50:04.905Z,100819.06
2022-08-07T15:53:02.632Z,100820.91
2022-08-07T15:56:02.705Z,100817.38
2022-08-07T15:59:00.193Z,100820.25
2022-08-07T16:02:01.675Z,100816.72
2022-08-07T16:05:01.957Z,100821.25
2022-08-07T16:08:30.580Z,100817.25
2022-08-07T16:11:26.733Z,100815.22
2022-08-07T16:14:32.136Z,100814.22
2022-08-07T16:18:01.719Z,100817.91
2022-08-07T16:22:01.235Z,100819.59
2022-08-07T16:24:34.409Z,100810.88
2022-08-07T16:27:41.606Z,100801.28
2022-08-07T16:30:36.783Z,100802.47
2022-08-07T16:34:01.683Z,100798.25
2022-08-07T16:38:06.431Z,100799.94
2022-08-07T16:40:36.527Z,100800.78
2022-08-07T16:44:46.210Z,100797.44
2022-08-07T16:48:07.855Z,100802.31
2022-08-07T16:51:52.126Z,100804.16
2022-08-07T16:55:08.190Z,100796.09
2022-08-07T16:58:27.477Z,100796.75
2022-08-07T17:01:41.257Z,100794.06
2022-08-07T17:04:58.075Z,100787.69
2022-08-07T17:07:59.454Z,100789.38
2022-08-07T17:10:56.307Z,100783.66
2022-08-07T17:14:17.976Z,100775.28
2022-08-07T17:17:23.444Z,100765.84
2022-08-07T17:20:33.752Z,100771.91
2022-08-07T17:23:55.044Z,100770.22
2022-08-07T17:27:00.646Z,100768.88
2022-08-07T17:30:15.191Z,100755.94
2022-08-07T17:34:08.988Z,100768.22
2022-08-07T17:36:32.741Z,100759.00
2022-08-07T17:40:11.563Z,100755.31
2022-08-07T17:43:18.199Z,100749.41
2022-08-07T17:46:46.433Z,100741.69
2022-08-07T17:49:53.469Z,100745.72
2022-08-07T17:52:59.871Z,100736.16
2022-08-07T17:56:06.284Z,100739.00
2022-08-07T17:58:57.305Z,100737.34
2022-08-07T18:01:58.103Z,100733.63
2022-08-07T18:05:22.208Z,100732.28
2022-08-07T18:08:26.773Z,100729.94
2022-08-07T18:12:07.645Z,100730.28
2022-08-07T18:14:52.208Z,100724.75
2022-08-07T18:18:45.094Z,100724.09
2022-08-07T18:21:54.890Z,100720.88
2022-08-07T18:25:00.374Z,100721.56
2022-08-07T18:28:34.065Z,100725.25
2022-08-07T18:31:33.969Z,100730.63
2022-08-07T18:35:00.792Z,100724.91
2022-08-07T18:38:58.988Z,100721.72
2022-08-07T18:42:04.410Z,100719.88
2022-08-07T18:45:43.488Z,100720.22
2022-08-07T18:49:03.599Z,100716.84
2022-08-07T18:52:37.902Z,100722.91
2022-08-07T18:55:40.314Z,100715.19
2022-08-07T18:58:36.931Z,100713.16
2022-08-07T19:02:32.871Z,100699.91
2022-08-07T19:05:10.408Z,100701.75
2022-08-07T19:08:28.835Z,100695.72
2022-08-07T19:11:35.965Z,100693.03
2022-08-07T19:14:51.177Z,100685.81
2022-08-07T19:18:11.536Z,100693.69
2022-08-07T19:21:09.827Z,100679.25
2022-08-07T19:24:11.392Z,100696.03
2022-08-07T19:28:29.258Z,100690.00
2022-08-07T19:31:00.621Z,100689.84
2022-08-07T19:33:58.098Z,100692.69
2022-08-07T19:36:53.937Z,100695.56
2022-08-07T19:40:05.117Z,100690.19
2022-08-07T19:42:58.323Z,100689.34
2022-08-07T19:46:01.065Z,100693.03
2022-08-07T19:49:09.761Z,100699.06
2022-08-07T19:52:00.270Z,100695.72
2022-08-07T19:54:56.480Z,100694.88
2022-08-07T19:58:03.483Z,100686.31
2022-08-07T20:01:01.873Z,100686.63
2022-08-07T20:03:54.032Z,100691.69
2022-08-07T20:06:46.039Z,100682.09
2022-08-07T20:10:34.291Z,100684.13
2022-08-07T20:13:00.486Z,100683.13
2022-08-07T20:15:57.941Z,100680.59
2022-08-07T20:18:48.582Z,100672.53
2022-08-07T20:21:46.746Z,100679.25
2022-08-07T20:24:38.819Z,100680.25
2022-08-07T20:27:46.161Z,100678.41
2022-08-07T20:30:38.432Z,100681.94
2022-08-07T20:33:38.232Z,100684.47
2022-08-07T20:36:31.013Z,100677.41
2022-08-07T20:39:30.920Z,100680.25
2022-08-07T20:42:40.873Z,100670.50
2022-08-07T20:46:28.340Z,100677.91
2022-08-07T20:49:55.115Z,100676.06
2022-08-07T20:52:00.680Z,100681.44
2022-08-07T20:54:55.235Z,100673.88
2022-08-07T20:57:47.579Z,100675.56
2022-08-07T21:01:19.911Z,100685.13
2022-08-07T21:04:22.755Z,100688.31
2022-08-07T21:07:14.690Z,100684.59
2022-08-07T21:10:12.379Z,100686.63
2022-08-07T21:13:08.963Z,100690.31
2022-08-07T21:16:05.806Z,100689.31
2022-08-07T21:18:58.607Z,100693.66
2022-08-07T21:21:57.397Z,100688.31
2022-08-07T21:25:12.888Z,100694.34
2022-08-07T21:28:48.960Z,100697.34
2022-08-07T21:32:41.806Z,100690.31
2022-08-07T21:35:14.686Z,100699.91
2022-08-07T21:38:15.814Z,100702.72
2022-08-07T21:41:21.531Z,100704.41
2022-08-07T21:44:38.282Z,100711.13
2022-08-07T21:47:35.035Z,100705.09
2022-08-07T21:50:56.458Z,100712.16
2022-08-07T21:53:52.933Z,100709.81
2022-08-07T21:57:00.714Z,100707.59
2022-08-07T22:00:22.816Z,100711.78
2022-08-07T22:03:30.660Z,100709.47
2022-08-07T22:06:30.457Z,100708.78
2022-08-07T22:09:26.875Z,100712.47
2022-08-07T22:12:51.530Z,100719.53
2022-08-07T22:16:42.501Z,100715.84
2022-08-07T22:19:29.638Z,100712.78
2022-08-07T22:22:29.245Z,100728.25
2022-08-07T22:25:36.508Z,100731.59
2022-08-07T22:28:48.484Z,100737.31
2022-08-07T22:32:06.112Z,100742.31
2022-08-07T22:34:57.302Z,100747.06
2022-08-07T22:38:03.211Z,100755.09
2022-08-07T22:41:14.623Z,100755.09
2022-08-07T22:44:09.689Z,100753.25
2022-08-07T22:47:16.838Z,100752.41
2022-08-07T22:50:37.730Z,100754.75
2022-08-07T22:54:07.386Z,100763.97
2022-08-07T22:57:17.339Z,100756.94
2022-08-07T23:00:28.514Z,100771.22
2022-08-07T23:03:57.286Z,100772.53
2022-08-07T23:07:39.941Z,100762.13
2022-08-07T23:10:41.840Z,100773.38
2022-08-07T23:13:48.429Z,100778.59
2022-08-07T23:17:19.872Z,100779.09
2022-08-07T23:20:52.784Z,100780.59
2022-08-07T23:24:06.992Z,100783.97
2022-08-07T23:27:04.377Z,100784.78
2022-08-07T23:30:38.282Z,100788.31
2022-08-07T23:34:23.709Z,100792.31
2022-08-07T23:37:22.489Z,100794.00
2022-08-07T23:40:31.397Z,100798.53
2022-08-07T23:43:37.811Z,100794.84
2022-08-07T23:47:01.354Z,100793.53
2022-08-07T23:50:11.882Z,100795.19
2022-08-07T23:53:16.664Z,100787.97
2022-08-07T23:56:41.606Z,100789.31
